Terminal Aerodrome Forecast
Issued by NWS

Home | Current Version | Previous Version | Text Only | Print | Product List | Glossary On
Versions: 1 2 3 4 5 6 7 8 9 10 11 12 13 14 15 16 17 18 19 20 21 22 23 24 25 26 27 28 29 30 31 32 33 34
000
FTAK31 PANC 300542
TAFAAQ
TAF
PAAQ 300542Z 3006/3106 VRB05KT P6SM FEW080 SCT100
      TEMPO 3006/3009 -SHRA BKN050
     FM302200 15007KT P6SM FEW120=

USA.gov is the U.S. government's official web portal to all federal, state and local government web resources and services.